Kezdőlap
METAR-TAF:

METAR-TAF

Repülőterek :

Lamar Municipal Airport

Lamar, Colorado, Amerikai Egyesült Államok

földrajzi szélesség: 38-04-21N, földrajzi hosszúság: 102-41-12W, magasság: 1128 m

Jelenlegi meteorológiai megfigyelések

A jelentés 50 perccel ezelõtt készült, 23:53 UTC
Kelet-délkeleti szél 24 kt széllökések: 31 kt
Hőmérséklet 17°C
Páratartalom 25%
Légköri nyomás 1010 hPa
Látótávolság: 16.1 km
Derült ég

METAR: KLAA 042353Z AUTO 12024G31KT 10SM CLR 17/M03 A2982 RMK AO2 PK WND 14031/2324 SLP094 T01671028 10200 20117 55013

Idő: 18:43 (00:43 UTC)


TAF: hiányzik

Meteorológiai megfigyelések és előrejelzések több, mint 4000 repülőtéren (METAR és TAF jelentéseket).

A térképen piros és sárga pontok jelzik az elérhető meteorológiai állomásokat.

Mozgassa az egeret a pont fölött, hogy megjelenjen az állomás neve.

Azután kattintson az időjárási megfigyelések és előrejelzések megtekintéséhez.

A térkép megváltoztatása: kattintson a fekete keresztel jelölt zöld gombra ráközelítéshez, a vonallal jelölt zöld gombra távolításhoz, vagy a zöld nyilakra a szomszédos térképek eléréséhez.


METAR-TAF: